Time;durP1;ratioP1;P1;durP2;ratioP2;P2;SDS_P1;SDS_P2;PMS_P1;PMS_P2;Temp;Humidity;BMP_temperature;BMP_pressure;BME280_temperature;BME280_humidity;BME280_pressure;Samples;Min_cycle;Max_cycle;Signal;HPM_P1;HPM_P2
2021/09/09 00:00:20;;;;;;;16.55;11.52;;;;;;;;;;5014179;28;20028;-63
2021/09/09 00:02:45;;;;;;;20.23;12.38;;;;;;;;;;5013693;28;20038;-64
2021/09/09 00:05:12;;;;;;;16.83;11.63;;;;;;;;;;5013749;28;20483;-64
2021/09/09 00:07:38;;;;;;;21.05;12.68;;;;;;;;;;5013887;28;20032;-64
2021/09/09 00:10:05;;;;;;;17.30;11.82;;;;;;;;;;5013418;28;20075;-64
2021/09/09 00:12:31;;;;;;;16.45;11.75;;;;;;;;;;5013795;28;20014;-64
2021/09/09 00:14:56;;;;;;;19.30;12.82;;;;;;;;;;5013572;28;20037;-64
2021/09/09 00:17:22;;;;;;;15.70;11.70;;;;;;;;;;5013576;28;20029;-63
2021/09/09 00:19:48;;;;;;;18.08;12.32;;;;;;;;;;5013627;28;20025;-62
2021/09/09 00:22:13;;;;;;;17.08;11.25;;;;;;;;;;5013578;28;20387;-62
2021/09/09 00:24:39;;;;;;;18.02;11.60;;;;;;;;;;5012163;28;20046;-62
2021/09/09 00:27:05;;;;;;;16.42;11.70;;;;;;;;;;5013412;28;20026;-63
2021/09/09 00:29:30;;;;;;;15.15;11.05;;;;;;;;;;5013575;28;20033;-63
2021/09/09 00:31:57;;;;;;;15.43;11.38;;;;;;;;;;4995857;28;20499;-64
2021/09/09 00:34:24;;;;;;;19.05;11.52;;;;;;;;;;5013303;28;20508;-64
2021/09/09 00:36:50;;;;;;;18.17;11.40;;;;;;;;;;5013750;28;20010;-64
2021/09/09 00:39:16;;;;;;;15.73;11.32;;;;;;;;;;5013263;28;20040;-64
2021/09/09 00:41:41;;;;;;;19.80;10.57;;;;;;;;;;5013678;28;20025;-63
2021/09/09 00:44:19;;;;;;;17.02;11.00;;;;;;;;;;5013348;28;20022;-64
2021/09/09 00:46:55;;;;;;;16.13;11.07;;;;;;;;;;5013531;28;20116;-64
2021/09/09 00:49:21;;;;;;;17.58;10.75;;;;;;;;;;5013425;28;20029;-61
2021/09/09 00:51:46;;;;;;;18.98;11.32;;;;;;;;;;4995507;28;20076;-61
2021/09/09 00:54:11;;;;;;;15.73;11.18;;;;;;;;;;5013447;28;20037;-61
2021/09/09 00:56:37;;;;;;;15.90;10.45;;;;;;;;;;5013219;28;20116;-65
2021/09/09 00:59:02;;;;;;;14.57;10.75;;;;;;;;;;4996013;28;20026;-62
2021/09/09 01:01:28;;;;;;;15.43;10.15;;;;;;;;;;5013569;28;20113;-64
2021/09/09 01:03:53;;;;;;;15.20;10.93;;;;;;;;;;5013273;28;20034;-64
2021/09/09 01:06:19;;;;;;;15.18;11.38;;;;;;;;;;4995692;28;20022;-65
2021/09/09 01:08:44;;;;;;;14.40;10.02;;;;;;;;;;5011747;28;20537;-64
2021/09/09 01:11:10;;;;;;;13.00;9.98;;;;;;;;;;5012934;28;20041;-65
2021/09/09 01:13:35;;;;;;;12.07;9.27;;;;;;;;;;5011590;28;20030;-64
2021/09/09 01:16:00;;;;;;;14.63;9.93;;;;;;;;;;5012987;28;20053;-65
2021/09/09 01:18:26;;;;;;;15.73;9.88;;;;;;;;;;5012992;28;20060;-64
2021/09/09 01:20:52;;;;;;;14.80;9.55;;;;;;;;;;5012820;28;20021;-64
2021/09/09 01:23:19;;;;;;;14.52;10.23;;;;;;;;;;5012806;28;20076;-65
2021/09/09 01:25:44;;;;;;;13.23;9.77;;;;;;;;;;4995322;28;20065;-64
2021/09/09 01:28:10;;;;;;;14.23;9.85;;;;;;;;;;5012788;28;20025;-65
2021/09/09 01:30:36;;;;;;;13.40;9.65;;;;;;;;;;5012749;28;20451;-65
2021/09/09 01:33:02;;;;;;;13.40;10.43;;;;;;;;;;5012836;28;20064;-65
2021/09/09 01:35:28;;;;;;;15.60;9.77;;;;;;;;;;5013025;28;20026;-64
2021/09/09 01:37:53;;;;;;;12.82;10.23;;;;;;;;;;5015242;28;20061;-65
2021/09/09 01:40:26;;;;;;;14.98;10.38;;;;;;;;;;5016589;28;20042;-65
2021/09/09 01:42:51;;;;;;;11.80;9.50;;;;;;;;;;5016374;28;20508;-65
2021/09/09 01:45:17;;;;;;;12.27;9.38;;;;;;;;;;4998583;28;20056;-65
2021/09/09 01:47:42;;;;;;;11.98;9.30;;;;;;;;;;5015962;28;20042;-65
2021/09/09 01:50:08;;;;;;;12.20;9.55;;;;;;;;;;5016408;28;20026;-65
2021/09/09 01:52:33;;;;;;;13.38;9.23;;;;;;;;;;5016255;28;20119;-66
2021/09/09 01:54:59;;;;;;;12.75;8.80;;;;;;;;;;4998678;28;20029;-65
2021/09/09 01:57:24;;;;;;;12.32;9.40;;;;;;;;;;5016192;28;20116;-65
2021/09/09 01:59:50;;;;;;;12.10;9.32;;;;;;;;;;5015897;28;20026;-65
2021/09/09 02:02:16;;;;;;;13.90;9.35;;;;;;;;;;5015653;28;20037;-65
2021/09/09 02:04:41;;;;;;;15.52;9.20;;;;;;;;;;4998450;28;20014;-65
2021/09/09 02:07:07;;;;;;;10.57;8.55;;;;;;;;;;5015955;28;20113;-65
2021/09/09 02:09:32;;;;;;;14.27;9.35;;;;;;;;;;4998109;28;20032;-65
2021/09/09 02:11:58;;;;;;;10.82;8.80;;;;;;;;;;5015674;28;20026;-65
2021/09/09 02:14:23;;;;;;;11.23;8.75;;;;;;;;;;4998155;28;20050;-65
2021/09/09 02:16:51;;;;;;;11.65;8.95;;;;;;;;;;5014621;28;20030;-65
2021/09/09 02:19:17;;;;;;;11.68;8.35;;;;;;;;;;5015727;28;20053;-65
2021/09/09 02:21:42;;;;;;;10.75;8.93;;;;;;;;;;5015563;28;20069;-65
2021/09/09 02:24:08;;;;;;;13.50;9.32;;;;;;;;;;5014998;28;20046;-65
2021/09/09 02:26:33;;;;;;;11.50;9.20;;;;;;;;;;5015703;28;20092;-65
2021/09/09 02:28:59;;;;;;;12.88;9.57;;;;;;;;;;5015411;28;20024;-65
2021/09/09 02:31:24;;;;;;;13.90;9.55;;;;;;;;;;5015346;28;20041;-64
2021/09/09 02:33:50;;;;;;;13.30;9.18;;;;;;;;;;5015258;28;20026;-65
2021/09/09 02:36:15;;;;;;;14.68;9.32;;;;;;;;;;5015342;28;20065;-65
2021/09/09 02:38:40;;;;;;;12.15;8.95;;;;;;;;;;5014031;28;20018;-66
2021/09/09 02:41:06;;;;;;;12.18;10.00;;;;;;;;;;5015033;28;20037;-65
2021/09/09 02:43:31;;;;;;;11.80;9.20;;;;;;;;;;5014877;28;20022;-66
2021/09/09 02:45:57;;;;;;;13.70;9.30;;;;;;;;;;5015389;28;20033;-65
2021/09/09 02:48:22;;;;;;;12.82;9.88;;;;;;;;;;5015205;28;20104;-66
2021/09/09 02:50:48;;;;;;;13.23;9.35;;;;;;;;;;5013557;28;20057;-65
2021/09/09 02:53:13;;;;;;;11.65;9.40;;;;;;;;;;5015089;28;20030;-65
2021/09/09 02:55:39;;;;;;;12.55;8.10;;;;;;;;;;5015338;28;20533;-65
2021/09/09 02:58:04;;;;;;;12.82;9.05;;;;;;;;;;5015010;28;20018;-65
2021/09/09 03:00:30;;;;;;;11.57;8.93;;;;;;;;;;5015029;28;20099;-65
2021/09/09 03:02:55;;;;;;;13.65;8.95;;;;;;;;;;5014685;28;20033;-66
2021/09/09 03:05:21;;;;;;;13.63;8.77;;;;;;;;;;5014755;28;20053;-65
2021/09/09 03:07:46;;;;;;;12.07;9.45;;;;;;;;;;5014561;28;20480;-66
2021/09/09 03:10:12;;;;;;;11.70;8.60;;;;;;;;;;5014829;28;20041;-66
2021/09/09 03:12:38;;;;;;;9.73;7.97;;;;;;;;;;5014747;28;20021;-65
2021/09/09 03:15:04;;;;;;;9.82;8.27;;;;;;;;;;5014896;28;20029;-66
2021/09/09 03:17:29;;;;;;;12.30;8.38;;;;;;;;;;5014571;28;20014;-66
2021/09/09 03:19:55;;;;;;;10.75;8.57;;;;;;;;;;5014431;28;20044;-66
2021/09/09 03:22:20;;;;;;;12.10;8.90;;;;;;;;;;5014357;28;20025;-65
2021/09/09 03:24:46;;;;;;;10.70;8.48;;;;;;;;;;5014191;28;20030;-66
2021/09/09 03:27:11;;;;;;;10.38;8.15;;;;;;;;;;5014278;28;20021;-66
2021/09/09 03:29:37;;;;;;;11.23;7.88;;;;;;;;;;5014139;28;20420;-66
2021/09/09 03:32:03;;;;;;;11.80;8.13;;;;;;;;;;5014290;28;20380;-66
2021/09/09 03:34:28;;;;;;;9.38;7.22;;;;;;;;;;5012886;28;20034;-66
2021/09/09 03:36:54;;;;;;;9.43;8.38;;;;;;;;;;5014347;28;20106;-65
2021/09/09 03:39:19;;;;;;;10.85;7.88;;;;;;;;;;5013995;28;20026;-66
2021/09/09 03:41:44;;;;;;;9.05;7.45;;;;;;;;;;5014097;28;20034;-66
2021/09/09 03:44:10;;;;;;;8.75;7.03;;;;;;;;;;5014135;28;20029;-65
2021/09/09 03:46:35;;;;;;;10.43;7.82;;;;;;;;;;5014156;28;20067;-66
2021/09/09 03:49:01;;;;;;;10.23;8.57;;;;;;;;;;5012644;28;20483;-66
2021/09/09 03:51:26;;;;;;;10.07;8.38;;;;;;;;;;5013803;28;20071;-66
2021/09/09 03:53:52;;;;;;;10.27;7.45;;;;;;;;;;5013903;28;20584;-66
2021/09/09 03:56:17;;;;;;;8.60;6.85;;;;;;;;;;5014212;28;20018;-66
2021/09/09 03:58:43;;;;;;;9.65;7.55;;;;;;;;;;5013091;28;20026;-66
2021/09/09 04:01:08;;;;;;;8.82;7.10;;;;;;;;;;5013979;28;20021;-66
2021/09/09 04:03:34;;;;;;;13.45;7.78;;;;;;;;;;5013873;28;20241;-66
2021/09/09 04:05:59;;;;;;;12.80;7.30;;;;;;;;;;4996399;28;20431;-66
2021/09/09 04:08:25;;;;;;;7.93;6.75;;;;;;;;;;5013885;28;20396;-66
2021/09/09 04:10:50;;;;;;;8.68;7.05;;;;;;;;;;5013466;28;20025;-66
2021/09/09 04:13:16;;;;;;;12.23;7.40;;;;;;;;;;5012352;28;20034;-66
2021/09/09 04:15:41;;;;;;;8.02;6.88;;;;;;;;;;5013944;28;20474;-66
2021/09/09 04:18:07;;;;;;;10.45;7.03;;;;;;;;;;5013650;28;20021;-66
2021/09/09 04:20:32;;;;;;;10.15;8.40;;;;;;;;;;4988956;28;20061;-66
2021/09/09 04:22:58;;;;;;;14.23;8.65;;;;;;;;;;4993085;28;20041;-66
2021/09/09 04:25:24;;;;;;;10.88;7.82;;;;;;;;;;5009544;28;20139;-66
2021/09/09 04:27:49;;;;;;;11.40;7.82;;;;;;;;;;5010191;28;20041;-65
2021/09/09 04:30:15;;;;;;;12.35;7.55;;;;;;;;;;5009895;28;20026;-66
2021/09/09 04:32:40;;;;;;;11.60;7.90;;;;;;;;;;5010037;28;20030;-66
2021/09/09 04:35:06;;;;;;;11.38;8.20;;;;;;;;;;5009636;28;20033;-66
2021/09/09 04:37:34;;;;;;;9.80;7.47;;;;;;;;;;5010215;28;20033;-66
2021/09/09 04:39:59;;;;;;;14.60;8.38;;;;;;;;;;5010034;28;20033;-66
2021/09/09 04:42:25;;;;;;;12.23;8.13;;;;;;;;;;5010155;28;20050;-65
2021/09/09 04:44:50;;;;;;;12.43;7.93;;;;;;;;;;5009797;28;20030;-65
2021/09/09 04:47:16;;;;;;;10.25;7.68;;;;;;;;;;5009909;28;20084;-65
2021/09/09 04:49:42;;;;;;;10.30;7.85;;;;;;;;;;5009692;28;20026;-65
2021/09/09 04:52:07;;;;;;;8.23;7.43;;;;;;;;;;5009915;28;20034;-66
2021/09/09 04:54:33;;;;;;;13.20;7.90;;;;;;;;;;5009951;28;20040;-66
2021/09/09 04:56:58;;;;;;;10.20;7.95;;;;;;;;;;5010215;28;20446;-66
2021/09/09 04:59:24;;;;;;;12.73;7.60;;;;;;;;;;5009877;28;20026;-66
2021/09/09 05:01:49;;;;;;;9.77;7.57;;;;;;;;;;5007959;28;20030;-66
2021/09/09 05:04:15;;;;;;;9.55;7.55;;;;;;;;;;4992139;28;20026;-65
2021/09/09 05:06:40;;;;;;;14.07;8.48;;;;;;;;;;5010119;28;20460;-65
2021/09/09 05:09:06;;;;;;;12.85;8.27;;;;;;;;;;4991729;28;20101;-63
2021/09/09 05:11:31;;;;;;;11.93;8.65;;;;;;;;;;5012636;28;20083;-65
2021/09/09 05:13:57;;;;;;;9.82;7.90;;;;;;;;;;5013211;28;20029;-65
2021/09/09 05:16:22;;;;;;;12.50;8.68;;;;;;;;;;5012771;28;20133;-65
2021/09/09 05:18:48;;;;;;;11.82;7.78;;;;;;;;;;4995083;28;20037;-65
2021/09/09 05:21:13;;;;;;;12.05;8.52;;;;;;;;;;5012532;28;20033;-65
2021/09/09 05:23:39;;;;;;;10.38;7.88;;;;;;;;;;5013223;28;20021;-65
2021/09/09 05:26:04;;;;;;;11.68;7.82;;;;;;;;;;5013004;28;20420;-64
2021/09/09 05:28:30;;;;;;;10.40;7.22;;;;;;;;;;5012943;28;20079;-66
2021/09/09 05:30:55;;;;;;;8.85;7.45;;;;;;;;;;4995221;28;20041;-64
2021/09/09 05:33:21;;;;;;;10.32;7.38;;;;;;;;;;5013218;28;20759;-65
2021/09/09 05:35:47;;;;;;;10.95;7.45;;;;;;;;;;5013001;28;20029;-64
2021/09/09 05:38:13;;;;;;;8.70;7.05;;;;;;;;;;5013232;28;20022;-64
2021/09/09 05:40:38;;;;;;;8.55;7.25;;;;;;;;;;5015150;28;20511;-65
2021/09/09 05:43:04;;;;;;;8.23;7.30;;;;;;;;;;4998541;28;20065;-65
2021/09/09 05:45:30;;;;;;;12.48;8.05;;;;;;;;;;5016076;28;20060;-65
2021/09/09 05:47:56;;;;;;;11.00;6.93;;;;;;;;;;5016351;28;20050;-65
2021/09/09 05:50:22;;;;;;;14.10;7.28;;;;;;;;;;5014551;28;20061;-65
2021/09/09 05:52:47;;;;;;;9.00;6.95;;;;;;;;;;4998343;28;20475;-65
2021/09/09 05:55:13;;;;;;;10.02;7.57;;;;;;;;;;5016146;28;20026;-65
2021/09/09 06:01:13;;;;;;;9.75;7.35;;;;;;;;;;5016372;28;20064;-65
2021/09/09 06:07:15;;;;;;;9.02;6.72;;;;;;;;;;5016232;28;20164;-66
2021/09/09 06:13:16;;;;;;;7.22;6.40;;;;;;;;;;5016332;28;20045;-65
2021/09/09 06:19:17;;;;;;;8.85;6.80;;;;;;;;;;5016241;28;20093;-65
2021/09/09 06:28:52;;;;;;;7.60;6.60;;;;;;;;;;5016026;28;20105;-65
2021/09/09 06:34:54;;;;;;;10.95;6.88;;;;;;;;;;5015971;28;20067;-65
2021/09/09 06:40:54;;;;;;;9.85;6.63;;;;;;;;;;5015836;28;20097;-65
2021/09/09 06:46:55;;;;;;;8.85;6.32;;;;;;;;;;5015755;28;20400;-67
2021/09/09 06:52:56;;;;;;;7.53;6.78;;;;;;;;;;5015665;28;20546;-65
2021/09/09 06:58:57;;;;;;;8.07;6.72;;;;;;;;;;5015456;28;20036;-65
2021/09/09 07:04:58;;;;;;;8.13;6.30;;;;;;;;;;5014889;28;20052;-65
2021/09/09 07:07:23;;;;;;;7.45;6.13;;;;;;;;;;5014584;28;20042;-65
2021/09/09 07:09:49;;;;;;;7.45;5.55;;;;;;;;;;5014557;28;20022;-65
2021/09/09 07:12:14;;;;;;;8.02;5.82;;;;;;;;;;4997236;28;20620;-65
2021/09/09 07:14:39;;;;;;;6.03;5.43;;;;;;;;;;5014481;28;20060;-65
2021/09/09 07:17:05;;;;;;;7.88;5.50;;;;;;;;;;5013123;28;20435;-65
2021/09/09 07:19:30;;;;;;;5.72;5.22;;;;;;;;;;5014596;28;20033;-65
2021/09/09 07:21:56;;;;;;;5.32;4.72;;;;;;;;;;5014551;28;20109;-65
2021/09/09 07:24:21;;;;;;;5.90;5.32;;;;;;;;;;5014474;28;20111;-63
2021/09/09 07:26:48;;;;;;;7.40;5.88;;;;;;;;;;5014246;28;20046;-63
2021/09/09 07:29:14;;;;;;;6.47;5.35;;;;;;;;;;5014252;28;20468;-62
2021/09/09 07:31:43;;;;;;;8.95;5.53;;;;;;;;;;5014335;28;20089;-63
2021/09/09 07:34:09;;;;;;;6.63;5.40;;;;;;;;;;5013467;28;20018;-62
2021/09/09 07:36:35;;;;;;;7.80;5.90;;;;;;;;;;5014493;28;20018;-63
2021/09/09 07:39:00;;;;;;;5.90;5.35;;;;;;;;;;5014100;28;20124;-63
2021/09/09 07:41:26;;;;;;;7.43;5.45;;;;;;;;;;5013952;28;20038;-63
2021/09/09 07:43:51;;;;;;;7.90;5.20;;;;;;;;;;5013997;28;20037;-63
2021/09/09 07:46:17;;;;;;;5.47;4.97;;;;;;;;;;5013916;28;20025;-63
2021/09/09 07:48:42;;;;;;;5.38;4.80;;;;;;;;;;5014168;28;20026;-63
2021/09/09 07:51:08;;;;;;;8.63;5.60;;;;;;;;;;5012644;28;20499;-63
2021/09/09 07:53:33;;;;;;;9.02;5.32;;;;;;;;;;5013810;28;20014;-63
2021/09/09 07:55:59;;;;;;;7.32;5.50;;;;;;;;;;5013617;28;20029;-65
2021/09/09 07:58:24;;;;;;;8.70;5.10;;;;;;;;;;4995618;28;20044;-65
2021/09/09 08:00:50;;;;;;;7.93;4.97;;;;;;;;;;5013933;28;20049;-66
2021/09/09 08:03:15;;;;;;;5.93;4.65;;;;;;;;;;4996199;28;20030;-66
2021/09/09 08:05:41;;;;;;;8.27;5.75;;;;;;;;;;5013695;28;20058;-66
2021/09/09 08:08:06;;;;;;;7.28;4.97;;;;;;;;;;5013614;28;20022;-67
2021/09/09 08:10:32;;;;;;;9.90;5.80;;;;;;;;;;5013465;28;20125;-66
2021/09/09 08:12:58;;;;;;;10.60;5.63;;;;;;;;;;5013725;28;20025;-63
2021/09/09 08:15:23;;;;;;;6.35;4.80;;;;;;;;;;5013842;28;20026;-66
2021/09/09 08:17:49;;;;;;;10.70;5.15;;;;;;;;;;5013843;28;20010;-66
2021/09/09 08:20:15;;;;;;;11.18;5.68;;;;;;;;;;5013598;28;20140;-66
2021/09/09 08:22:41;;;;;;;11.05;6.13;;;;;;;;;;5013744;28;20108;-66
2021/09/09 08:25:08;;;;;;;5.32;4.47;;;;;;;;;;5013126;28;20037;-66
2021/09/09 08:27:34;;;;;;;9.00;4.80;;;;;;;;;;5013713;28;20117;-66
2021/09/09 08:30:00;;;;;;;10.38;6.93;;;;;;;;;;5013479;28;20121;-66
2021/09/09 08:32:25;;;;;;;12.23;5.78;;;;;;;;;;5013526;28;20506;-66
2021/09/09 08:34:54;;;;;;;15.20;7.40;;;;;;;;;;5013514;28;20384;-66
2021/09/09 08:37:20;;;;;;;13.43;8.00;;;;;;;;;;5013495;28;20465;-66
2021/09/09 08:39:45;;;;;;;6.68;5.32;;;;;;;;;;5013366;28;20025;-66
2021/09/09 08:42:12;;;;;;;10.07;6.40;;;;;;;;;;5012582;28;20106;-66
2021/09/09 08:44:37;;;;;;;8.68;6.15;;;;;;;;;;5012872;28;20022;-66
2021/09/09 08:47:04;;;;;;;7.25;4.30;;;;;;;;;;5016257;28;20041;-66
2021/09/09 08:49:29;;;;;;;7.85;4.90;;;;;;;;;;4998376;28;20388;-67
2021/09/09 08:55:30;;;;;;;4.65;4.20;;;;;;;;;;5018029;28;20064;-66
2021/09/09 09:01:29;;;;;;;6.22;4.15;;;;;;;;;;5017723;28;20120;-66
2021/09/09 09:07:32;;;;;;;4.65;4.25;;;;;;;;;;5017381;28;20092;-66
2021/09/09 09:13:33;;;;;;;5.05;4.10;;;;;;;;;;5017509;28;20029;-66
2021/09/09 09:19:35;;;;;;;5.70;4.20;;;;;;;;;;5017422;28;20024;-66
2021/09/09 09:22:04;;;;;;;4.32;3.80;;;;;;;;;;5016962;28;20034;-66
2021/09/09 09:24:33;;;;;;;6.88;4.25;;;;;;;;;;5016566;28;20029;-66
2021/09/09 09:27:15;;;;;;;4.68;3.42;;;;;;;;;;5016193;28;20480;-65
2021/09/09 09:29:42;;;;;;;4.65;3.50;;;;;;;;;;5016470;28;20515;-66
2021/09/09 09:32:12;;;;;;;4.78;3.80;;;;;;;;;;5014540;28;20021;-65
2021/09/09 09:34:38;;;;;;;4.40;3.88;;;;;;;;;;5006131;28;20489;-66
2021/09/09 09:37:04;;;;;;;16.33;5.75;;;;;;;;;;5001359;28;20057;-65
2021/09/09 09:39:29;;;;;;;14.07;5.30;;;;;;;;;;5005390;28;20491;-65
2021/09/09 09:41:55;;;;;;;11.27;5.03;;;;;;;;;;4993901;28;20017;-65
2021/09/09 09:44:30;;;;;;;3.38;2.95;;;;;;;;;;5005887;28;20056;-65
2021/09/09 09:47:10;;;;;;;19.58;6.40;;;;;;;;;;5004553;28;20034;-65
2021/09/09 09:49:43;;;;;;;6.80;4.13;;;;;;;;;;4998119;28;20121;-65
2021/09/09 09:52:16;;;;;;;20.27;6.78;;;;;;;;;;4996501;28;20316;-65
2021/09/09 09:54:52;;;;;;;27.77;8.32;;;;;;;;;;4996472;28;20085;-66
2021/09/09 09:57:19;;;;;;;22.38;8.13;;;;;;;;;;4995380;28;20030;-66
2021/09/09 09:59:44;;;;;;;21.40;6.28;;;;;;;;;;4996278;28;20026;-65
2021/09/09 10:02:10;;;;;;;6.30;4.65;;;;;;;;;;4996397;28;20038;-65
2021/09/09 10:04:37;;;;;;;15.43;6.47;;;;;;;;;;4996164;28;20041;-65
2021/09/09 10:07:03;;;;;;;16.48;6.88;;;;;;;;;;4996086;28;20400;-66
2021/09/09 10:09:28;;;;;;;8.48;4.75;;;;;;;;;;4995946;28;20090;-62
2021/09/09 10:11:54;;;;;;;5.45;4.70;;;;;;;;;;4995987;28;20396;-63
2021/09/09 10:14:23;;;;;;;5.13;4.60;;;;;;;;;;4996103;28;20022;-63
2021/09/09 10:16:50;;;;;;;5.03;4.53;;;;;;;;;;4996530;28;20572;-63
2021/09/09 10:19:22;;;;;;;8.35;5.13;;;;;;;;;;4996142;28;20022;-64
2021/09/09 10:21:48;;;;;;;15.32;6.72;;;;;;;;;;4995868;28;20117;-63
2021/09/09 10:24:14;;;;;;;11.32;6.25;;;;;;;;;;4995888;28;20432;-64
2021/09/09 10:26:40;;;;;;;16.85;7.53;;;;;;;;;;4978529;28;20058;-63
2021/09/09 10:29:09;;;;;;;16.65;6.47;;;;;;;;;;4978418;28;20062;-64
2021/09/09 10:31:42;;;;;;;7.30;5.13;;;;;;;;;;4978414;28;20038;-64
2021/09/09 10:34:21;;;;;;;7.55;5.00;;;;;;;;;;4996044;28;20027;-64
2021/09/09 10:36:47;;;;;;;14.95;6.28;;;;;;;;;;4978403;28;20034;-64
2021/09/09 10:39:32;;;;;;;10.48;6.05;;;;;;;;;;4995913;28;20076;-64
2021/09/09 10:41:58;;;;;;;5.07;4.47;;;;;;;;;;4994278;28;20030;-63
2021/09/09 10:44:26;;;;;;;6.25;4.57;;;;;;;;;;4978045;28;20014;-63
2021/09/09 10:46:53;;;;;;;4.38;4.03;;;;;;;;;;4994493;28;20042;-64
2021/09/09 10:49:19;;;;;;;5.28;4.50;;;;;;;;;;4995450;28;20462;-62
2021/09/09 10:52:04;;;;;;;5.85;4.80;;;;;;;;;;4995369;28;20034;-62
2021/09/09 10:54:31;;;;;;;6.40;4.68;;;;;;;;;;4995282;28;20030;-62
2021/09/09 10:57:11;;;;;;;5.95;4.78;;;;;;;;;;4995547;28;20029;-62
2021/09/09 10:59:46;;;;;;;7.97;5.28;;;;;;;;;;4994090;28;20121;-62
2021/09/09 11:02:13;;;;;;;5.43;4.50;;;;;;;;;;4995094;28;20034;-62
2021/09/09 11:04:39;;;;;;;10.63;5.50;;;;;;;;;;4995051;28;20038;-61
2021/09/09 11:07:18;;;;;;;5.68;4.38;;;;;;;;;;4995446;28;20030;-62
2021/09/09 11:09:44;;;;;;;10.30;5.23;;;;;;;;;;4995270;28;20195;-62
2021/09/09 11:12:09;;;;;;;8.95;4.72;;;;;;;;;;4995088;28;20045;-62
2021/09/09 11:14:36;;;;;;;7.55;4.93;;;;;;;;;;4994529;28;20100;-62
2021/09/09 11:17:02;;;;;;;4.60;3.90;;;;;;;;;;4994934;28;20026;-62
2021/09/09 11:19:28;;;;;;;5.63;4.07;;;;;;;;;;4977759;28;20018;-62
2021/09/09 11:21:58;;;;;;;4.63;4.20;;;;;;;;;;4994849;28;20439;-61
2021/09/09 11:24:24;;;;;;;4.70;4.30;;;;;;;;;;4994950;28;20026;-62
2021/09/09 11:26:50;;;;;;;9.27;4.60;;;;;;;;;;4994833;28;20069;-62
2021/09/09 11:29:23;;;;;;;6.85;4.38;;;;;;;;;;4994797;28;20060;-62
2021/09/09 11:31:57;;;;;;;7.75;4.85;;;;;;;;;;4994599;28;20588;-62
2021/09/09 11:34:27;;;;;;;6.38;4.82;;;;;;;;;;4994515;28;20408;-62
2021/09/09 11:36:53;;;;;;;7.88;4.50;;;;;;;;;;4994701;28;20031;-68
2021/09/09 11:39:20;;;;;;;11.20;4.43;;;;;;;;;;4994699;28;20036;-68
2021/09/09 11:41:46;;;;;;;4.32;3.92;;;;;;;;;;4994404;28;20038;-69
2021/09/09 11:44:24;;;;;;;6.07;3.80;;;;;;;;;;4994532;28;20080;-68
2021/09/09 11:46:50;;;;;;;6.15;4.07;;;;;;;;;;4994590;28;20030;-69
2021/09/09 11:49:16;;;;;;;5.50;4.00;;;;;;;;;;4976942;28;20508;-68
2021/09/09 11:51:42;;;;;;;4.90;4.00;;;;;;;;;;4994259;28;20049;-68
2021/09/09 11:54:09;;;;;;;4.20;3.80;;;;;;;;;;4994221;28;20046;-68
2021/09/09 11:56:35;;;;;;;4.60;3.67;;;;;;;;;;4994568;28;20069;-68
2021/09/09 11:59:03;;;;;;;4.10;3.70;;;;;;;;;;4994366;28;20046;-68
2021/09/09 12:01:34;;;;;;;5.75;4.40;;;;;;;;;;4994375;28;20034;-67
2021/09/09 12:04:00;;;;;;;6.00;4.32;;;;;;;;;;4994560;28;20030;-67
2021/09/09 12:06:26;;;;;;;6.00;3.95;;;;;;;;;;4994135;28;20080;-67
2021/09/09 12:08:52;;;;;;;5.70;4.20;;;;;;;;;;4993961;28;20121;-67
2021/09/09 12:11:17;;;;;;;5.45;4.20;;;;;;;;;;4994074;28;20033;-67
2021/09/09 12:13:46;;;;;;;4.50;4.03;;;;;;;;;;4994104;28;20848;-67
2021/09/09 12:16:16;;;;;;;4.35;3.80;;;;;;;;;;4986095;28;20453;-68
2021/09/09 12:18:42;;;;;;;4.80;4.32;;;;;;;;;;4974755;28;20026;-68
2021/09/09 12:21:18;;;;;;;4.32;3.92;;;;;;;;;;4973954;28;20023;-68
2021/09/09 12:24:20;;;;;;;5.78;3.90;;;;;;;;;;4974318;28;20038;-68
2021/09/09 12:26:57;;;;;;;4.53;4.05;;;;;;;;;;4944885;28;20096;-68
2021/09/09 12:29:22;;;;;;;8.85;4.40;;;;;;;;;;4993824;28;20120;-68
2021/09/09 12:31:48;;;;;;;4.90;4.15;;;;;;;;;;4993677;28;20066;-67
2021/09/09 12:34:17;;;;;;;6.40;4.10;;;;;;;;;;4993565;28;20105;-67
2021/09/09 12:36:46;;;;;;;6.40;4.18;;;;;;;;;;4976474;28;20026;-67
2021/09/09 12:39:13;;;;;;;24.27;14.15;;;;;;;;;;4993818;28;20070;-67
2021/09/09 12:41:38;;;;;;;9.07;4.80;;;;;;;;;;4993839;28;20038;-67
2021/09/09 12:44:04;;;;;;;4.43;4.03;;;;;;;;;;4993840;28;20019;-67
2021/09/09 12:46:34;;;;;;;5.65;3.92;;;;;;;;;;4993654;28;20026;-67
2021/09/09 12:49:02;;;;;;;4.93;3.60;;;;;;;;;;4993624;28;20077;-67
2021/09/09 12:51:28;;;;;;;5.47;4.05;;;;;;;;;;4993675;28;20030;-67
2021/09/09 12:53:53;;;;;;;4.88;4.45;;;;;;;;;;4993752;28;20425;-67
2021/09/09 12:56:19;;;;;;;4.13;3.60;;;;;;;;;;4993517;28;20038;-67
2021/09/09 12:58:45;;;;;;;5.15;3.83;;;;;;;;;;4993573;28;20027;-67
2021/09/09 13:01:10;;;;;;;10.93;6.38;;;;;;;;;;4993463;28;20493;-67
2021/09/09 13:03:36;;;;;;;8.27;5.07;;;;;;;;;;4975629;28;20493;-68
2021/09/09 13:06:03;;;;;;;6.22;3.67;;;;;;;;;;4993608;28;20100;-68
2021/09/09 13:08:29;;;;;;;4.43;3.95;;;;;;;;;;4993508;28;20121;-69
2021/09/09 13:10:54;;;;;;;4.55;4.13;;;;;;;;;;4993318;28;20081;-68
2021/09/09 13:13:20;;;;;;;5.85;4.18;;;;;;;;;;4993409;28;20033;-68
2021/09/09 13:15:46;;;;;;;5.55;3.72;;;;;;;;;;4975935;28;20487;-68
2021/09/09 13:18:11;;;;;;;4.93;4.32;;;;;;;;;;4993799;28;20026;-67
2021/09/09 13:20:37;;;;;;;6.03;4.60;;;;;;;;;;4975948;28;20374;-67
2021/09/09 13:23:03;;;;;;;6.63;3.78;;;;;;;;;;4993197;28;20088;-67
2021/09/09 13:25:29;;;;;;;4.40;4.00;;;;;;;;;;4992772;28;20439;-67
2021/09/09 13:27:54;;;;;;;5.72;3.83;;;;;;;;;;4976299;28;20121;-68
2021/09/09 13:30:20;;;;;;;4.35;4.00;;;;;;;;;;4993155;28;20117;-67
2021/09/09 13:32:45;;;;;;;7.85;4.10;;;;;;;;;;4997036;28;20080;-67
2021/09/09 13:35:11;;;;;;;4.20;3.58;;;;;;;;;;4996980;28;20015;-68
2021/09/09 13:37:37;;;;;;;4.28;3.75;;;;;;;;;;4996794;28;20030;-68
2021/09/09 13:40:02;;;;;;;5.47;3.85;;;;;;;;;;4996719;28;20022;-67
2021/09/09 13:42:28;;;;;;;4.47;3.75;;;;;;;;;;4996786;28;20054;-68
2021/09/09 13:44:54;;;;;;;7.28;3.80;;;;;;;;;;4996761;28;20022;-67
2021/09/09 13:47:19;;;;;;;4.03;3.65;;;;;;;;;;4996680;28;20026;-67
2021/09/09 13:49:45;;;;;;;5.80;3.83;;;;;;;;;;4996430;28;20112;-67
2021/09/09 13:52:10;;;;;;;3.80;3.50;;;;;;;;;;4996743;28;20041;-68
2021/09/09 13:54:37;;;;;;;4.75;3.53;;;;;;;;;;4988612;28;20022;-68
2021/09/09 13:57:04;;;;;;;3.33;2.80;;;;;;;;;;4982848;28;20109;-68
2021/09/09 13:59:31;;;;;;;3.95;3.65;;;;;;;;;;4993138;28;20014;-68
2021/09/09 14:01:57;;;;;;;4.22;3.33;;;;;;;;;;4992715;28;20042;-68
2021/09/09 14:04:23;;;;;;;4.00;3.55;;;;;;;;;;4992370;28;20030;-69
2021/09/09 14:06:48;;;;;;;3.53;3.22;;;;;;;;;;4995918;28;20053;-68
2021/09/09 14:09:13;;;;;;;6.05;3.60;;;;;;;;;;4996438;28;20370;-68
2021/09/09 14:11:39;;;;;;;5.45;4.10;;;;;;;;;;4978959;28;20069;-68
2021/09/09 14:14:04;;;;;;;3.83;3.42;;;;;;;;;;4978900;28;20089;-68
2021/09/09 14:16:30;;;;;;;4.22;3.78;;;;;;;;;;4996511;28;20061;-68
2021/09/09 14:18:56;;;;;;;5.40;4.28;;;;;;;;;;4996101;28;20029;-67
2021/09/09 14:21:21;;;;;;;4.32;3.92;;;;;;;;;;4996242;28;20388;-67
2021/09/09 14:23:47;;;;;;;5.60;3.88;;;;;;;;;;4995912;28;20098;-63
2021/09/09 14:26:13;;;;;;;4.35;3.95;;;;;;;;;;5008310;28;20042;-63
2021/09/09 14:28:38;;;;;;;4.63;3.88;;;;;;;;;;5015467;28;20370;-63
2021/09/09 14:31:04;;;;;;;5.93;3.72;;;;;;;;;;5014427;28;20117;-63
2021/09/09 14:33:29;;;;;;;4.05;3.70;;;;;;;;;;5015468;28;20022;-63
2021/09/09 14:35:55;;;;;;;6.20;4.38;;;;;;;;;;5015258;28;20133;-64
2021/09/09 14:38:20;;;;;;;4.40;4.00;;;;;;;;;;5015450;28;20018;-64
2021/09/09 14:40:46;;;;;;;4.32;3.92;;;;;;;;;;5013791;28;20377;-64
2021/09/09 14:43:11;;;;;;;4.15;3.45;;;;;;;;;;4997121;28;20380;-64
2021/09/09 14:45:37;;;;;;;4.18;3.78;;;;;;;;;;5014906;28;20080;-64
2021/09/09 14:48:04;;;;;;;4.88;4.10;;;;;;;;;;5015332;28;20025;-64
2021/09/09 14:50:30;;;;;;;5.07;4.15;;;;;;;;;;5014626;28;20080;-64
2021/09/09 14:52:55;;;;;;;4.47;4.07;;;;;;;;;;5015092;28;20045;-64
2021/09/09 14:55:21;;;;;;;5.00;3.80;;;;;;;;;;5014820;28;20498;-63
2021/09/09 14:57:47;;;;;;;7.43;4.75;;;;;;;;;;5014812;28;20100;-63
2021/09/09 15:00:13;;;;;;;6.70;3.88;;;;;;;;;;5014734;28;20105;-63
2021/09/09 15:02:38;;;;;;;5.93;3.75;;;;;;;;;;5014763;28;20022;-63
2021/09/09 15:05:05;;;;;;;4.22;3.83;;;;;;;;;;5014856;28;20030;-63
2021/09/09 15:07:30;;;;;;;6.20;3.85;;;;;;;;;;5014833;28;20031;-64
2021/09/09 15:09:56;;;;;;;5.88;3.67;;;;;;;;;;5014713;28;20030;-64
2021/09/09 15:12:21;;;;;;;4.13;3.75;;;;;;;;;;5014715;28;20014;-63
2021/09/09 15:14:47;;;;;;;4.40;4.00;;;;;;;;;;5014777;28;20041;-63
2021/09/09 15:17:13;;;;;;;5.13;3.97;;;;;;;;;;5014605;28;20026;-63
2021/09/09 15:19:39;;;;;;;4.82;4.43;;;;;;;;;;5014377;28;20040;-63
2021/09/09 15:22:05;;;;;;;4.53;4.00;;;;;;;;;;5014596;28;20045;-63
2021/09/09 15:24:30;;;;;;;6.22;3.97;;;;;;;;;;4997170;28;20034;-64
2021/09/09 15:26:56;;;;;;;4.85;3.70;;;;;;;;;;5014319;28;20099;-64
2021/09/09 15:29:21;;;;;;;4.30;3.95;;;;;;;;;;5014202;28;20034;-64
2021/09/09 15:31:47;;;;;;;5.45;4.25;;;;;;;;;;5014023;28;20105;-64